createdAt,value
2022-08-10T00:01:53.817Z,96864.69
2022-08-10T00:04:24.631Z,96865.25
2022-08-10T00:06:53.198Z,96873.09
2022-08-10T00:09:20.447Z,96865.06
2022-08-10T00:11:47.233Z,96865.13
2022-08-10T00:14:13.934Z,96861.75
2022-08-10T00:16:40.663Z,96862.63
2022-08-10T00:19:07.523Z,96866.31
2022-08-10T00:21:34.244Z,96857.63
2022-08-10T00:24:00.996Z,96865.81
2022-08-10T00:27:52.062Z,96853.44
2022-08-10T00:29:14.560Z,96857.50
2022-08-10T00:31:58.308Z,96854.16
2022-08-10T00:34:31.476Z,96849.97
2022-08-10T00:36:59.316Z,96855.16
2022-08-10T00:39:28.084Z,96850.34
2022-08-10T00:42:06.841Z,96846.81
2022-08-10T00:44:49.051Z,96849.66
2022-08-10T00:47:36.234Z,96848.50
2022-08-10T00:50:08.492Z,96854.22
2022-08-10T00:52:36.875Z,96850.88
2022-08-10T00:55:06.084Z,96849.06
2022-08-10T00:57:34.197Z,96851.72
2022-08-10T01:00:01.043Z,96858.91
2022-08-10T01:02:33.025Z,96856.25
2022-08-10T01:05:09.482Z,96855.97
2022-08-10T01:07:56.123Z,96856.09
2022-08-10T01:10:32.207Z,96854.78
2022-08-10T01:13:17.503Z,96855.84
2022-08-10T01:15:51.070Z,96858.19
2022-08-10T01:18:38.062Z,96860.03
2022-08-10T01:21:34.025Z,96860.38
2022-08-10T01:24:45.888Z,96860.59
2022-08-10T01:27:29.125Z,96861.78
2022-08-10T01:29:55.773Z,96860.13
2022-08-10T01:32:47.639Z,96852.25
2022-08-10T01:35:20.616Z,96856.97
2022-08-10T01:37:57.398Z,96855.13
2022-08-10T01:40:27.416Z,96859.78
2022-08-10T01:42:59.793Z,96858.84
2022-08-10T01:45:45.267Z,96856.50
2022-08-10T01:48:29.433Z,96855.66
2022-08-10T01:51:02.063Z,96851.84
2022-08-10T01:53:40.895Z,96859.69
2022-08-10T01:56:10.916Z,96870.59
2022-08-10T01:58:39.657Z,96866.22
2022-08-10T02:01:09.772Z,96865.75
2022-08-10T02:04:03.591Z,96874.25
2022-08-10T02:06:28.060Z,96876.66
2022-08-10T02:09:06.599Z,96865.78
2022-08-10T02:11:55.667Z,96865.13
2022-08-10T02:14:33.389Z,96868.31
2022-08-10T02:17:05.550Z,96860.28
2022-08-10T02:19:35.456Z,96864.97
2022-08-10T02:22:36.307Z,96858.78
2022-08-10T02:24:51.370Z,96856.31
2022-08-10T02:27:21.450Z,96864.16
2022-08-10T02:29:49.400Z,96859.47
2022-08-10T02:32:28.925Z,96863.81
2022-08-10T02:35:06.220Z,96861.00
2022-08-10T02:37:37.461Z,96859.84
2022-08-10T02:40:04.929Z,96854.31
2022-08-10T02:45:23.045Z,96861.00
2022-08-10T02:45:52.784Z,96854.97
2022-08-10T02:48:37.920Z,96857.00
2022-08-10T02:51:11.295Z,96853.66
2022-08-10T02:54:06.892Z,96853.81
2022-08-10T02:56:39.639Z,96848.81
2022-08-10T02:59:08.974Z,96854.34
2022-08-10T03:01:43.342Z,96853.84
2022-08-10T03:04:54.601Z,96845.66
2022-08-10T03:07:43.360Z,96850.00
2022-08-10T03:10:13.204Z,96844.16
2022-08-10T03:12:43.352Z,96847.69
2022-08-10T03:15:15.694Z,96851.38
2022-08-10T03:17:56.853Z,96853.38
2022-08-10T03:20:37.414Z,96865.06
2022-08-10T03:23:11.320Z,96859.84
2022-08-10T03:25:38.816Z,96859.03
2022-08-10T03:28:06.270Z,96858.41
2022-08-10T03:30:34.540Z,96857.03
2022-08-10T03:33:04.398Z,96859.03
2022-08-10T03:35:31.780Z,96857.88
2022-08-10T03:38:00.057Z,96867.72
2022-08-10T03:40:32.317Z,96866.25
2022-08-10T03:43:18.639Z,96869.56
2022-08-10T03:45:55.284Z,96864.91
2022-08-10T03:48:42.450Z,96869.72
2022-08-10T03:51:12.137Z,96866.56
2022-08-10T03:54:04.368Z,96876.75
2022-08-10T03:56:31.051Z,96880.09
2022-08-10T03:58:59.253Z,96875.44
2022-08-10T04:02:46.060Z,96877.94
2022-08-10T04:04:17.761Z,96891.47
2022-08-10T04:06:51.450Z,96891.47
2022-08-10T04:09:21.382Z,96886.13
2022-08-10T04:11:48.111Z,96892.47
2022-08-10T04:14:38.114Z,96888.13
2022-08-10T04:17:01.613Z,96892.81
2022-08-10T04:19:35.343Z,96884.44
2022-08-10T04:22:10.506Z,96892.47
2022-08-10T04:24:39.961Z,96891.78
2022-08-10T04:27:06.961Z,96895.97
2022-08-10T04:29:33.811Z,96900.31
2022-08-10T04:32:04.430Z,96891.94
2022-08-10T04:34:32.862Z,96895.47
2022-08-10T04:37:08.600Z,96905.66
2022-08-10T04:39:36.349Z,96907.47
2022-08-10T04:42:04.094Z,96912.50
2022-08-10T04:44:31.135Z,96910.50
2022-08-10T04:46:59.143Z,96918.03
2022-08-10T04:49:53.932Z,96917.88
2022-08-10T04:52:14.139Z,96921.38
2022-08-10T04:54:41.664Z,96922.34
2022-08-10T04:57:08.989Z,96924.03
2022-08-10T04:59:35.926Z,96917.53
2022-08-10T05:02:28.408Z,96914.19
2022-08-10T05:04:49.365Z,96914.50
2022-08-10T05:07:18.358Z,96922.22
2022-08-10T05:10:01.558Z,96907.50
2022-08-10T05:12:35.810Z,96903.81
2022-08-10T05:15:06.121Z,96906.19
2022-08-10T05:17:33.931Z,96901.00
2022-08-10T05:20:03.101Z,96905.50
2022-08-10T05:22:37.418Z,96903.00
2022-08-10T05:25:06.375Z,96903.69
2022-08-10T05:27:34.031Z,96901.44
2022-08-10T05:30:02.422Z,96905.28
2022-08-10T05:32:31.279Z,96902.94
2022-08-10T05:34:58.031Z,96903.03
2022-08-10T05:38:12.444Z,96899.66
2022-08-10T05:40:12.541Z,96908.31
2022-08-10T05:42:40.309Z,96908.66
2022-08-10T05:45:10.326Z,96906.81
2022-08-10T05:48:53.920Z,96905.53
2022-08-10T05:50:27.928Z,96899.47
2022-08-10T05:52:55.237Z,96900.38
2022-08-10T05:55:24.123Z,96898.69
2022-08-10T05:57:52.452Z,96903.47
2022-08-10T06:00:36.770Z,96899.84
2022-08-10T06:03:08.630Z,96907.47
2022-08-10T06:05:39.739Z,96901.44
2022-08-10T06:08:13.353Z,96902.75
2022-08-10T06:12:16.744Z,96905.84
2022-08-10T06:14:13.198Z,96897.56
2022-08-10T06:16:38.966Z,96889.81
2022-08-10T06:19:06.667Z,96899.50
2022-08-10T06:21:33.744Z,96897.38
2022-08-10T06:24:02.373Z,96895.94
2022-08-10T06:26:29.148Z,96893.31
2022-08-10T06:29:07.184Z,96896.00
2022-08-10T06:31:48.165Z,96888.44
2022-08-10T06:34:19.526Z,96891.22
2022-08-10T06:36:47.307Z,96892.72
2022-08-10T06:39:32.431Z,96892.03
2022-08-10T06:42:16.444Z,96893.00
2022-08-10T06:44:55.671Z,96886.50
2022-08-10T06:47:26.907Z,96891.72
2022-08-10T06:49:59.783Z,96892.56
2022-08-10T06:52:29.346Z,96884.16
2022-08-10T06:54:59.484Z,96884.13
2022-08-10T06:57:31.191Z,96883.69
2022-08-10T07:00:01.070Z,96883.06
2022-08-10T07:03:07.245Z,96881.13
2022-08-10T07:05:46.859Z,96890.59
2022-08-10T07:08:23.207Z,96884.81
2022-08-10T07:10:52.377Z,96876.53
2022-08-10T07:14:17.272Z,96880.19
2022-08-10T07:16:12.043Z,96882.09
2022-08-10T07:18:41.329Z,96877.81
2022-08-10T07:21:09.029Z,96877.91
2022-08-10T07:23:57.239Z,96879.56
2022-08-10T07:26:27.285Z,96872.94
2022-08-10T07:28:54.857Z,96872.84
2022-08-10T07:31:54.462Z,96880.13
2022-08-10T07:34:10.462Z,96881.31
2022-08-10T07:36:40.774Z,96870.84
2022-08-10T07:39:09.678Z,96877.13
2022-08-10T07:41:41.007Z,96877.09
2022-08-10T07:44:11.402Z,96886.00
2022-08-10T07:46:44.968Z,96872.19
2022-08-10T07:49:23.498Z,96875.28
2022-08-10T07:51:54.320Z,96874.41
2022-08-10T07:54:23.577Z,96879.16
2022-08-10T07:56:53.045Z,96873.72
2022-08-10T07:59:36.883Z,96876.09
2022-08-10T08:02:06.391Z,96878.38
2022-08-10T08:04:34.124Z,96879.94
2022-08-10T08:07:04.475Z,96866.94
2022-08-10T08:09:33.751Z,96878.28
2022-08-10T08:12:02.654Z,96873.06
2022-08-10T08:14:30.314Z,96877.44
2022-08-10T08:16:58.723Z,96870.72
2022-08-10T08:19:28.411Z,96868.69
2022-08-10T08:24:06.051Z,96864.59
2022-08-10T08:24:52.697Z,96869.25
2022-08-10T08:27:21.387Z,96874.28
2022-08-10T08:29:50.703Z,96858.91
2022-08-10T08:32:30.240Z,96875.94
2022-08-10T08:35:02.407Z,96863.94
2022-08-10T08:38:31.411Z,96870.25
2022-08-10T08:40:37.860Z,96869.47
2022-08-10T08:43:24.735Z,96863.03
2022-08-10T08:46:04.953Z,96862.19
2022-08-10T08:48:50.595Z,96867.00
2022-08-10T08:52:09.324Z,96867.50
2022-08-10T08:55:02.285Z,96872.69
2022-08-10T08:57:49.399Z,96870.41
2022-08-10T09:00:39.263Z,96868.91
2022-08-10T09:03:38.946Z,96864.06
2022-08-10T09:06:30.177Z,96869.91
2022-08-10T09:09:27.831Z,96866.69
2022-08-10T09:12:05.177Z,96858.81
2022-08-10T09:14:44.937Z,96867.75
2022-08-10T09:17:35.434Z,96868.41
2022-08-10T09:20:10.025Z,96868.53
2022-08-10T09:22:57.619Z,96868.00
2022-08-10T09:25:51.578Z,96867.16
2022-08-10T09:28:32.173Z,96868.41
2022-08-10T09:31:22.867Z,96872.69
2022-08-10T09:36:20.578Z,96878.75
2022-08-10T09:36:59.474Z,96870.16
2022-08-10T09:40:06.720Z,96868.44
2022-08-10T09:43:21.997Z,96865.75
2022-08-10T09:46:02.853Z,96867.06
2022-08-10T09:48:40.393Z,96864.41
2022-08-10T09:51:44.848Z,96863.28
2022-08-10T09:54:30.993Z,96851.09
2022-08-10T09:57:44.686Z,96853.47
2022-08-10T10:00:16.607Z,96862.03
2022-08-10T10:03:02.158Z,96861.88
2022-08-10T10:05:51.405Z,96851.09
2022-08-10T10:08:22.131Z,96852.28
2022-08-10T10:10:54.660Z,96851.78
2022-08-10T10:13:50.078Z,96849.50
2022-08-10T10:16:32.897Z,96837.59
2022-08-10T10:19:40.736Z,96836.78
2022-08-10T10:22:45.310Z,96829.72
2022-08-10T10:25:50.165Z,96826.44
2022-08-10T10:28:44.376Z,96830.16
2022-08-10T10:31:28.546Z,96823.47
2022-08-10T10:34:32.588Z,96821.28
2022-08-10T10:37:01.564Z,96824.66
2022-08-10T10:39:30.265Z,96814.53
2022-08-10T10:42:34.969Z,96818.03
2022-08-10T10:45:20.873Z,96813.63
2022-08-10T10:47:59.626Z,96812.00
2022-08-10T10:50:34.842Z,96808.34
2022-08-10T10:53:13.609Z,96810.72
2022-08-10T10:56:15.132Z,96808.28
2022-08-10T10:59:01.470Z,96805.19
2022-08-10T11:01:58.803Z,96798.53
2022-08-10T11:04:45.769Z,96798.31
2022-08-10T11:07:16.861Z,96799.41
2022-08-10T11:10:31.462Z,96800.22
2022-08-10T11:13:06.891Z,96799.69
2022-08-10T11:16:05.789Z,96798.75
2022-08-10T11:18:33.920Z,96797.88
2022-08-10T11:21:16.127Z,96792.63
2022-08-10T11:24:47.037Z,96789.50
2022-08-10T11:27:02.543Z,96794.66
2022-08-10T11:29:31.768Z,96784.38
2022-08-10T11:32:04.928Z,96792.97
2022-08-10T11:34:46.924Z,96790.72
2022-08-10T11:37:19.998Z,96790.78
2022-08-10T11:40:12.359Z,96781.28
2022-08-10T11:42:47.251Z,96778.28
2022-08-10T11:45:20.295Z,96779.50
2022-08-10T11:47:54.319Z,96769.44
2022-08-10T11:50:37.104Z,96776.22
2022-08-10T11:53:13.600Z,96768.25
2022-08-10T11:55:43.341Z,96761.44
2022-08-10T11:58:45.126Z,96758.31
2022-08-10T12:01:15.568Z,96763.41
2022-08-10T12:03:44.652Z,96755.53
2022-08-10T12:06:28.689Z,96751.78
2022-08-10T12:10:10.474Z,96750.97
2022-08-10T12:11:53.313Z,96745.78
2022-08-10T12:14:29.309Z,96737.47
2022-08-10T12:17:03.743Z,96737.63
2022-08-10T12:19:59.581Z,96737.84
2022-08-10T12:22:57.705Z,96732.03
2022-08-10T12:25:55.596Z,96735.09
2022-08-10T12:28:50.047Z,96730.91
2022-08-10T12:31:25.319Z,96734.03
2022-08-10T12:34:08.387Z,96723.16
2022-08-10T12:36:44.967Z,96716.19
2022-08-10T12:39:26.906Z,96714.59
2022-08-10T12:42:11.235Z,96719.06
2022-08-10T12:45:14.767Z,96720.44
2022-08-10T12:48:08.958Z,96719.31
2022-08-10T12:51:13.726Z,96733.41
2022-08-10T12:54:07.599Z,96714.06
2022-08-10T12:56:42.581Z,96709.38
2022-08-10T12:59:13.287Z,96711.81
2022-08-10T13:02:09.684Z,96705.91
2022-08-10T13:04:31.524Z,96716.72
2022-08-10T13:07:03.515Z,96714.91
2022-08-10T13:09:31.560Z,96715.63
2022-08-10T13:12:36.581Z,96704.91
2022-08-10T13:15:44.563Z,96702.66
2022-08-10T13:17:57.929Z,96704.13
2022-08-10T13:20:34.416Z,96704.31
2022-08-10T13:23:05.281Z,96700.72
2022-08-10T13:25:36.647Z,96700.31
2022-08-10T13:28:35.706Z,96697.97
2022-08-10T13:30:55.354Z,96693.34
2022-08-10T13:34:39.683Z,96693.06
2022-08-10T13:36:16.219Z,96688.13
2022-08-10T13:38:48.813Z,96685.63
2022-08-10T13:41:18.315Z,96689.59
2022-08-10T13:43:51.552Z,96685.50
2022-08-10T13:46:22.941Z,96689.59
2022-08-10T13:48:53.894Z,96685.41
2022-08-10T13:51:57.245Z,96685.53
2022-08-10T13:54:20.388Z,96683.59
2022-08-10T13:56:48.960Z,96677.09
2022-08-10T13:59:16.833Z,96683.63
2022-08-10T14:01:49.710Z,96679.72
2022-08-10T14:04:17.761Z,96682.75
2022-08-10T14:06:53.393Z,96678.97
2022-08-10T14:09:27.407Z,96678.03
2022-08-10T14:11:56.497Z,96683.63
2022-08-10T14:14:25.788Z,96681.97
2022-08-10T14:16:54.027Z,96682.59
2022-08-10T14:19:36.595Z,96679.44
2022-08-10T14:22:06.200Z,96684.50
2022-08-10T14:24:33.646Z,96681.47
2022-08-10T14:27:07.737Z,96675.44
2022-08-10T14:29:51.521Z,96676.06
2022-08-10T14:32:22.090Z,96678.53
2022-08-10T14:34:50.593Z,96675.31
2022-08-10T14:37:41.625Z,96673.13
2022-08-10T14:40:13.774Z,96673.53
2022-08-10T14:43:13.008Z,96671.03
2022-08-10T14:45:47.607Z,96675.63
2022-08-10T14:48:32.040Z,96670.44
2022-08-10T14:51:02.428Z,96672.38
2022-08-10T14:53:36.137Z,96667.03
2022-08-10T14:56:08.609Z,96662.16
2022-08-10T14:59:05.690Z,96665.94
2022-08-10T15:02:01.208Z,96669.91
2022-08-10T15:04:23.415Z,96668.78
2022-08-10T15:06:55.981Z,96672.28
2022-08-10T15:09:25.463Z,96669.28
2022-08-10T15:12:13.008Z,96667.34
2022-08-10T15:14:46.737Z,96662.69
2022-08-10T15:17:28.318Z,96660.28
2022-08-10T15:20:13.419Z,96656.47
2022-08-10T15:22:50.116Z,96660.22
2022-08-10T15:25:25.057Z,96656.34
2022-08-10T15:28:04.882Z,96647.06
2022-08-10T15:30:56.683Z,96652.03
2022-08-10T15:34:02.833Z,96653.19
2022-08-10T15:37:02.009Z,96653.69
2022-08-10T15:40:25.482Z,96653.38
2022-08-10T15:42:35.563Z,96642.72
2022-08-10T15:45:02.994Z,96638.84
2022-08-10T15:47:44.923Z,96643.88
2022-08-10T15:50:19.918Z,96648.63
2022-08-10T15:53:02.163Z,96648.03
2022-08-10T15:55:43.069Z,96638.38
2022-08-10T15:58:39.239Z,96642.44
2022-08-10T16:02:14.678Z,96634.66
2022-08-10T16:04:21.350Z,96640.50
2022-08-10T16:07:15.506Z,96642.50
2022-08-10T16:10:22.903Z,96637.88
2022-08-10T16:13:00.001Z,96633.84
2022-08-10T16:15:29.184Z,96636.09
2022-08-10T16:18:05.968Z,96638.13
2022-08-10T16:20:51.415Z,96633.19
2022-08-10T16:23:35.541Z,96628.50
2022-08-10T16:26:14.931Z,96642.38
2022-08-10T16:28:59.690Z,96626.75
2022-08-10T16:31:29.394Z,96640.81
2022-08-10T16:34:00.341Z,96635.75
2022-08-10T16:36:47.849Z,96637.06
2022-08-10T16:39:57.782Z,96632.81
2022-08-10T16:42:34.802Z,96635.69
2022-08-10T16:45:11.694Z,96637.97
2022-08-10T16:47:46.021Z,96636.38
2022-08-10T16:50:15.927Z,96644.59
2022-08-10T16:52:44.216Z,96637.25
2022-08-10T16:55:24.437Z,96647.22
2022-08-10T16:58:12.550Z,96646.31
2022-08-10T17:00:40.811Z,96645.63
2022-08-10T17:03:22.387Z,96640.09
2022-08-10T17:06:03.437Z,96643.78
2022-08-10T17:08:47.865Z,96646.56
2022-08-10T17:11:16.649Z,96649.56
2022-08-10T17:13:43.717Z,96642.69
2022-08-10T17:16:12.398Z,96641.28
2022-08-10T17:18:45.133Z,96638.19
2022-08-10T17:21:13.602Z,96640.91
2022-08-10T17:23:47.040Z,96644.94
2022-08-10T17:26:29.175Z,96640.59
2022-08-10T17:29:17.268Z,96639.19
2022-08-10T17:32:05.492Z,96637.16
2022-08-10T17:34:38.812Z,96642.84
2022-08-10T17:37:13.390Z,96637.41
2022-08-10T17:39:46.068Z,96640.75
2022-08-10T17:42:20.768Z,96646.53
2022-08-10T17:44:51.189Z,96645.09
2022-08-10T17:47:19.387Z,96639.34
2022-08-10T17:49:47.203Z,96642.53
2022-08-10T17:52:20.676Z,96647.69
2022-08-10T17:54:54.905Z,96652.28
2022-08-10T17:57:24.067Z,96654.34
2022-08-10T17:59:52.909Z,96657.16
2022-08-10T18:02:27.586Z,96662.53
2022-08-10T18:04:56.552Z,96668.75
2022-08-10T18:07:32.651Z,96670.03
2022-08-10T18:10:02.045Z,96666.53
2022-08-10T18:12:42.062Z,96669.63
2022-08-10T18:15:13.861Z,96672.56
2022-08-10T18:17:44.881Z,96677.97
2022-08-10T18:20:13.731Z,96674.97
2022-08-10T18:22:46.569Z,96685.41
2022-08-10T18:25:19.104Z,96687.81
2022-08-10T18:28:04.273Z,96687.66
2022-08-10T18:30:36.142Z,96690.44
2022-08-10T18:33:08.963Z,96698.41
2022-08-10T18:35:37.367Z,96691.56
2022-08-10T18:38:06.807Z,96694.34
2022-08-10T18:40:36.078Z,96693.19
2022-08-10T18:44:06.010Z,96701.56
2022-08-10T18:45:58.307Z,96703.34
2022-08-10T18:48:33.403Z,96700.47
2022-08-10T18:51:06.221Z,96705.72
2022-08-10T18:53:48.525Z,96708.88
2022-08-10T18:56:37.240Z,96713.97
2022-08-10T18:59:28.699Z,96723.59
2022-08-10T19:02:16.783Z,96728.16
2022-08-10T19:05:31.006Z,96723.19
2022-08-10T19:08:32.086Z,96733.22
2022-08-10T19:11:19.878Z,96730.75
2022-08-10T19:14:27.877Z,96741.38
2022-08-10T19:17:16.569Z,96739.13
2022-08-10T19:19:55.981Z,96746.41
2022-08-10T19:22:49.089Z,96750.75
2022-08-10T19:26:41.116Z,96753.25
2022-08-10T19:28:16.886Z,96752.00
2022-08-10T19:31:08.691Z,96746.00
2022-08-10T19:33:47.163Z,96768.44
2022-08-10T19:36:25.101Z,96754.50
2022-08-10T19:39:26.482Z,96762.00
2022-08-10T19:42:20.629Z,96767.00
2022-08-10T19:46:01.663Z,96762.44
2022-08-10T19:48:18.913Z,96763.88
2022-08-10T19:50:56.084Z,96767.00
2022-08-10T19:53:31.576Z,96763.28
2022-08-10T19:56:43.384Z,96764.31
2022-08-10T20:00:15.286Z,96766.81
2022-08-10T20:02:22.126Z,96767.03
2022-08-10T20:05:35.769Z,96759.56
2022-08-10T20:08:19.913Z,96759.56
2022-08-10T20:11:04.469Z,96767.03
2022-08-10T20:13:36.972Z,96767.47
2022-08-10T20:16:08.998Z,96768.31
2022-08-10T20:18:41.931Z,96757.31
2022-08-10T20:21:23.123Z,96760.41
2022-08-10T20:23:55.746Z,96763.75
2022-08-10T20:26:30.863Z,96760.44
2022-08-10T20:29:16.445Z,96764.59
2022-08-10T20:32:13.038Z,96759.63
2022-08-10T20:34:45.959Z,96765.63
2022-08-10T20:37:41.370Z,96761.69
2022-08-10T20:40:38.322Z,96763.31
2022-08-10T20:43:38.996Z,96766.03
2022-08-10T20:46:24.980Z,96770.81
2022-08-10T20:49:11.682Z,96773.06
2022-08-10T20:51:59.119Z,96771.22
2022-08-10T20:54:35.020Z,96764.38
2022-08-10T20:57:55.482Z,96765.59
2022-08-10T21:00:11.010Z,96766.59
2022-08-10T21:03:07.070Z,96757.47
2022-08-10T21:06:00.998Z,96760.16
2022-08-10T21:08:42.798Z,96758.09
2022-08-10T21:11:41.032Z,96758.69
2022-08-10T21:14:37.950Z,96762.00
2022-08-10T21:17:34.918Z,96766.56
2022-08-10T21:20:33.452Z,96760.47
2022-08-10T21:23:05.852Z,96760.19
2022-08-10T21:28:49.814Z,96763.50
2022-08-10T21:31:38.486Z,96758.88
2022-08-10T21:34:32.643Z,96757.00
2022-08-10T21:37:08.267Z,96765.06
2022-08-10T21:39:53.302Z,96762.13
2022-08-10T21:42:54.531Z,96768.69
2022-08-10T21:45:59.794Z,96767.19
2022-08-10T21:48:59.258Z,96776.91
2022-08-10T21:52:01.575Z,96773.97
2022-08-10T21:55:08.553Z,96773.97
2022-08-10T21:58:16.461Z,96779.50
2022-08-10T22:01:17.594Z,96777.97
2022-08-10T22:04:03.802Z,96772.59
2022-08-10T22:06:59.386Z,96775.69
2022-08-10T22:09:50.161Z,96785.19
2022-08-10T22:12:40.846Z,96778.88
2022-08-10T22:16:03.603Z,96780.72
2022-08-10T22:19:01.664Z,96787.31
2022-08-10T22:22:05.405Z,96790.81
2022-08-10T22:25:35.838Z,96792.22
2022-08-10T22:28:21.508Z,96783.25
2022-08-10T22:31:24.736Z,96762.06
2022-08-10T22:34:47.464Z,96780.47
2022-08-10T22:37:45.835Z,96773.16
2022-08-10T22:40:42.637Z,96774.31
2022-08-10T22:43:38.306Z,96773.81
2022-08-10T22:46:29.176Z,96778.25
2022-08-10T22:49:02.350Z,96781.72
2022-08-10T22:51:46.025Z,96777.09
2022-08-10T22:54:34.109Z,96783.88
2022-08-10T22:57:21.058Z,96778.81
2022-08-10T22:59:49.551Z,96778.53
2022-08-10T23:02:38.094Z,96773.97
2022-08-10T23:05:14.678Z,96764.28
2022-08-10T23:07:56.909Z,96769.19
2022-08-10T23:10:29.201Z,96768.72
2022-08-10T23:13:13.235Z,96775.50
2022-08-10T23:16:21.653Z,96771.31
2022-08-10T23:19:09.736Z,96777.44
2022-08-10T23:22:07.487Z,96773.91
2022-08-10T23:24:46.678Z,96774.94
2022-08-10T23:27:34.018Z,96771.97
2022-08-10T23:30:11.158Z,96760.56
2022-08-10T23:32:59.886Z,96766.53
2022-08-10T23:36:30.464Z,96767.25
2022-08-10T23:38:27.191Z,96764.66
2022-08-10T23:40:57.742Z,96756.34
2022-08-10T23:43:53.454Z,96756.53
2022-08-10T23:46:23.886Z,96749.13
2022-08-10T23:48:54.837Z,96740.22
2022-08-10T23:51:38.762Z,96742.47
2022-08-10T23:54:20.060Z,96735.81
2022-08-10T23:57:01.004Z,96738.03
2022-08-10T23:59:32.058Z,96737.19
